createdAt,value
2022-11-12T00:01:59.214Z,69.30
2022-11-12T00:04:44.490Z,69.47
2022-11-12T00:07:29.663Z,69.22
2022-11-12T00:10:15.386Z,68.91
2022-11-12T00:13:00.654Z,68.91
2022-11-12T00:15:46.978Z,68.64
2022-11-12T00:18:32.316Z,68.95
2022-11-12T00:21:17.473Z,68.50
2022-11-12T00:24:02.847Z,68.51
2022-11-12T00:26:48.091Z,68.68
2022-11-12T00:29:33.248Z,68.55
2022-11-12T00:32:18.470Z,69.06
2022-11-12T00:35:06.748Z,69.11
2022-11-12T00:37:56.899Z,68.88
2022-11-12T00:40:42.994Z,68.97
2022-11-12T00:43:28.387Z,68.59
2022-11-12T00:46:13.632Z,68.58
2022-11-12T00:48:58.995Z,68.68
2022-11-12T00:51:44.809Z,68.78
2022-11-12T00:54:30.121Z,68.79
2022-11-12T00:57:15.687Z,68.71
2022-11-12T01:00:00.859Z,68.76
2022-11-12T01:02:51.135Z,68.56
2022-11-12T01:05:36.784Z,68.34
2022-11-12T01:08:22.087Z,68.75
2022-11-12T01:11:11.291Z,68.95
2022-11-12T01:13:58.770Z,68.86
2022-11-12T01:16:44.024Z,68.58
2022-11-12T01:19:29.428Z,68.77
2022-11-12T01:22:14.834Z,68.59
2022-11-12T01:25:00.166Z,68.91
2022-11-12T01:27:45.423Z,68.85
2022-11-12T01:30:30.808Z,69.05
2022-11-12T01:33:16.036Z,68.84
2022-11-12T01:36:01.433Z,68.58
2022-11-12T01:38:47.492Z,68.33
2022-11-12T01:41:35.065Z,68.65
2022-11-12T01:44:22.756Z,68.93
2022-11-12T01:47:22.037Z,68.83
2022-11-12T01:50:07.755Z,69.07
2022-11-12T01:52:56.891Z,68.99
2022-11-12T01:55:42.351Z,68.91
2022-11-12T01:58:30.029Z,69.00
2022-11-12T02:01:15.498Z,68.61
2022-11-12T02:04:00.815Z,68.73
2022-11-12T02:06:47.267Z,68.67
2022-11-12T02:09:32.670Z,68.82
2022-11-12T02:12:36.667Z,69.03
2022-11-12T02:15:22.305Z,69.03
2022-11-12T02:18:07.637Z,69.08
2022-11-12T02:20:54.982Z,68.44
2022-11-12T02:23:40.264Z,68.77
2022-11-12T02:26:26.306Z,68.97
2022-11-12T02:29:11.864Z,68.67
2022-11-12T02:31:57.217Z,69.01
2022-11-12T02:34:42.529Z,68.96
2022-11-12T02:37:27.694Z,69.10
2022-11-12T02:40:13.144Z,68.94
2022-11-12T02:42:59.999Z,68.94
2022-11-12T02:45:45.980Z,69.56
2022-11-12T02:48:31.511Z,69.30
2022-11-12T02:51:16.674Z,69.04
2022-11-12T02:54:02.011Z,69.23
2022-11-12T02:56:47.324Z,69.16
2022-11-12T02:59:35.661Z,69.28
2022-11-12T03:02:20.982Z,69.00
2022-11-12T03:05:06.271Z,69.02
2022-11-12T03:07:56.468Z,69.26
2022-11-12T03:10:41.956Z,69.27
2022-11-12T03:13:27.416Z,69.25
2022-11-12T03:16:12.735Z,69.19
2022-11-12T03:18:57.967Z,69.68
2022-11-12T03:21:43.246Z,69.70
2022-11-12T03:24:29.162Z,69.84
2022-11-12T03:27:14.482Z,69.46
2022-11-12T03:29:59.888Z,69.48
2022-11-12T03:32:45.183Z,69.58
2022-11-12T03:35:30.654Z,69.47
2022-11-12T03:38:16.117Z,69.42
2022-11-12T03:41:01.304Z,69.65
2022-11-12T03:43:46.543Z,69.59
2022-11-12T03:46:31.916Z,69.65
2022-11-12T03:49:17.428Z,69.66
2022-11-12T03:52:02.841Z,69.56
2022-11-12T03:54:48.328Z,69.34
2022-11-12T03:57:37.382Z,69.66
2022-11-12T04:00:24.255Z,69.43
2022-11-12T04:03:09.341Z,69.53
2022-11-12T04:06:13.198Z,69.54
2022-11-12T04:08:58.760Z,69.65
2022-11-12T04:11:44.027Z,69.35
2022-11-12T04:14:29.264Z,69.01
2022-11-12T04:17:32.963Z,69.19
2022-11-12T04:20:37.266Z,69.07
2022-11-12T04:23:22.744Z,69.14
2022-11-12T04:26:26.092Z,68.99
2022-11-12T04:29:31.053Z,69.02
2022-11-12T04:32:19.148Z,69.08
2022-11-12T04:35:05.236Z,69.38
2022-11-12T04:37:50.527Z,69.13
2022-11-12T04:40:54.726Z,69.36
2022-11-12T04:43:59.003Z,69.06
2022-11-12T04:46:44.643Z,69.20
2022-11-12T04:49:29.888Z,69.02
2022-11-12T04:52:15.263Z,68.90
2022-11-12T04:55:00.677Z,69.02
2022-11-12T04:57:45.970Z,68.98
2022-11-12T05:00:31.679Z,68.98
2022-11-12T05:03:17.849Z,68.96
2022-11-12T05:06:05.102Z,69.16
2022-11-12T05:08:50.962Z,69.00
2022-11-12T05:11:36.214Z,68.81
2022-11-12T05:14:22.269Z,68.88
2022-11-12T05:17:07.710Z,68.91
2022-11-12T05:19:53.039Z,69.01
2022-11-12T05:22:44.281Z,68.88
2022-11-12T05:25:31.385Z,68.94
2022-11-12T05:28:16.661Z,69.29
2022-11-12T05:31:01.944Z,68.93
2022-11-12T05:33:47.177Z,68.87
2022-11-12T05:36:32.572Z,69.31
2022-11-12T05:39:17.942Z,69.51
2022-11-12T05:42:12.913Z,69.91
2022-11-12T05:44:59.109Z,69.65
2022-11-12T05:47:44.560Z,69.70
2022-11-12T05:50:34.979Z,69.78
2022-11-12T05:53:25.190Z,69.42
2022-11-12T05:56:11.193Z,69.27
2022-11-12T05:58:56.951Z,69.37
2022-11-12T06:01:44.266Z,69.51
2022-11-12T06:04:29.702Z,69.65
2022-11-12T06:07:14.972Z,69.67
2022-11-12T06:10:00.328Z,69.40
2022-11-12T06:12:45.615Z,69.30
2022-11-12T06:15:35.146Z,69.64
2022-11-12T06:18:24.484Z,69.75
2022-11-12T06:21:20.413Z,69.56
2022-11-12T06:24:06.138Z,69.70
2022-11-12T06:26:51.493Z,70.08
2022-11-12T06:29:38.689Z,70.05
2022-11-12T06:32:24.654Z,70.03
2022-11-12T06:35:09.767Z,70.15
2022-11-12T06:37:55.501Z,70.17
2022-11-12T06:40:41.898Z,69.80
2022-11-12T06:43:29.653Z,69.92
2022-11-12T06:46:16.407Z,70.17
2022-11-12T06:49:01.924Z,69.94
2022-11-12T06:51:47.188Z,69.91
2022-11-12T06:54:32.571Z,69.84
2022-11-12T06:57:17.770Z,69.90
2022-11-12T07:00:03.627Z,69.73
2022-11-12T07:02:49.435Z,69.87
2022-11-12T07:05:38.967Z,70.32
2022-11-12T07:08:24.559Z,71.16
2022-11-12T07:11:11.043Z,70.85
2022-11-12T07:13:56.622Z,71.55
2022-11-12T07:16:42.112Z,71.50
2022-11-12T07:19:27.286Z,72.46
2022-11-12T07:22:12.856Z,71.87
2022-11-12T07:24:58.875Z,72.34
2022-11-12T07:27:44.869Z,72.33
2022-11-12T07:30:30.303Z,72.36
2022-11-12T07:33:15.591Z,72.99
2022-11-12T07:36:06.011Z,73.00
2022-11-12T07:38:52.985Z,72.67
2022-11-12T07:41:38.248Z,72.70
2022-11-12T07:44:23.816Z,72.62
2022-11-12T07:47:09.162Z,72.95
2022-11-12T07:49:55.630Z,73.49
2022-11-12T07:52:41.254Z,73.99
2022-11-12T07:55:26.849Z,74.73
2022-11-12T07:58:12.447Z,75.83
2022-11-12T08:00:58.427Z,75.00
2022-11-12T08:03:43.708Z,74.86
2022-11-12T08:06:30.671Z,74.83
2022-11-12T08:09:16.295Z,75.00
2022-11-12T08:12:01.762Z,76.39
2022-11-12T08:14:47.009Z,76.09
2022-11-12T08:17:32.187Z,74.48
2022-11-12T08:20:17.520Z,75.38
2022-11-12T08:23:03.267Z,75.20
2022-11-12T08:25:49.147Z,74.69
2022-11-12T08:28:36.302Z,74.27
2022-11-12T08:31:23.011Z,73.88
2022-11-12T08:34:18.539Z,74.99
2022-11-12T08:37:07.779Z,74.81
2022-11-12T08:39:53.260Z,74.88
2022-11-12T08:42:39.604Z,74.51
2022-11-12T08:45:25.226Z,74.44
2022-11-12T08:48:16.211Z,73.92
2022-11-12T08:51:05.715Z,73.46
2022-11-12T08:53:51.486Z,72.99
2022-11-12T08:56:36.960Z,72.55
2022-11-12T08:59:22.243Z,71.59
2022-11-12T09:02:12.967Z,70.81
2022-11-12T09:04:58.484Z,70.06
2022-11-12T09:07:49.897Z,68.73
2022-11-12T09:10:36.957Z,67.85
2022-11-12T09:13:22.444Z,66.72
2022-11-12T09:16:09.455Z,65.39
2022-11-12T09:18:54.604Z,65.03
2022-11-12T09:21:40.002Z,64.27
2022-11-12T09:24:25.941Z,63.66
2022-11-12T09:27:10.997Z,62.91
2022-11-12T09:29:56.647Z,61.86
2022-11-12T09:32:41.989Z,61.46
2022-11-12T09:35:31.005Z,60.96
2022-11-12T09:38:17.981Z,60.03
2022-11-12T09:41:14.109Z,58.80
2022-11-12T09:44:04.933Z,57.90
2022-11-12T09:46:53.122Z,57.61
2022-11-12T09:49:48.124Z,58.22
2022-11-12T09:52:33.697Z,58.71
2022-11-12T09:55:36.389Z,55.06
2022-11-12T09:58:21.926Z,58.18
2022-11-12T10:01:15.398Z,58.83
2022-11-12T10:04:15.690Z,60.45
2022-11-12T10:07:06.600Z,61.30
2022-11-12T10:10:14.190Z,60.53
2022-11-12T10:13:25.288Z,61.22
2022-11-12T10:16:49.695Z,61.48
2022-11-12T10:19:38.207Z,62.63
2022-11-12T10:22:37.619Z,63.26
2022-11-12T10:25:25.173Z,63.55
2022-11-12T10:28:23.328Z,63.59
2022-11-12T10:31:18.510Z,64.10
2022-11-12T10:34:23.047Z,64.16
2022-11-12T10:37:22.778Z,64.48
2022-11-12T10:40:20.608Z,65.02
2022-11-12T10:43:21.533Z,66.00
2022-11-12T10:46:22.413Z,66.47
2022-11-12T10:49:17.631Z,65.98
2022-11-12T10:52:03.640Z,65.66
2022-11-12T10:54:54.856Z,66.25
2022-11-12T10:57:41.576Z,65.29
2022-11-12T11:00:27.365Z,64.59
2022-11-12T11:03:24.739Z,63.33
2022-11-12T11:06:16.375Z,64.54
2022-11-12T11:09:22.342Z,64.23
2022-11-12T11:12:23.662Z,63.68
2022-11-12T11:15:20.269Z,64.00
2022-11-12T11:18:10.490Z,63.41
2022-11-12T11:21:20.476Z,63.81
2022-11-12T11:24:11.828Z,65.28
2022-11-12T11:27:19.864Z,63.47
2022-11-12T11:30:10.804Z,63.86
2022-11-12T11:33:02.621Z,64.18
2022-11-12T11:35:59.391Z,63.38
2022-11-12T11:38:54.893Z,63.92
2022-11-12T11:41:49.490Z,62.98
2022-11-12T11:44:44.525Z,64.33
2022-11-12T11:47:59.866Z,64.23
2022-11-12T11:51:01.332Z,64.01
2022-11-12T11:53:50.067Z,63.37
2022-11-12T11:56:40.825Z,63.84
2022-11-12T11:59:56.987Z,64.52
2022-11-12T12:03:07.321Z,64.52
2022-11-12T12:06:01.822Z,64.65
2022-11-12T12:08:59.925Z,64.59
2022-11-12T12:11:58.003Z,65.05
2022-11-12T12:14:46.231Z,63.98
2022-11-12T12:17:44.158Z,64.08
2022-11-12T12:20:40.181Z,65.08
2022-11-12T12:23:33.405Z,64.61
2022-11-12T12:26:33.332Z,64.77
2022-11-12T12:29:36.768Z,65.30
2022-11-12T12:32:27.830Z,64.66
2022-11-12T12:35:23.247Z,65.99
2022-11-12T12:38:15.948Z,66.56
2022-11-12T12:41:33.264Z,64.15
2022-11-12T12:44:18.534Z,65.21
2022-11-12T12:47:04.194Z,65.33
2022-11-12T12:49:50.268Z,65.71
2022-11-12T12:53:25.369Z,65.93
2022-11-12T12:56:11.288Z,66.17
2022-11-12T12:58:58.430Z,66.57
2022-11-12T13:01:44.072Z,66.36
2022-11-12T13:04:55.705Z,66.28
2022-11-12T13:07:51.021Z,66.44
2022-11-12T13:10:41.516Z,66.12
2022-11-12T13:13:33.027Z,65.71
2022-11-12T13:16:54.071Z,64.92
2022-11-12T13:19:53.115Z,66.14
2022-11-12T13:22:38.634Z,66.17
2022-11-12T13:25:29.563Z,66.38
2022-11-12T13:28:14.991Z,65.53
2022-11-12T13:31:02.168Z,67.00
2022-11-12T13:33:48.628Z,65.81
2022-11-12T13:36:34.575Z,66.35
2022-11-12T13:39:20.642Z,66.81
2022-11-12T13:42:36.511Z,66.39
2022-11-12T13:45:24.217Z,66.87
2022-11-12T13:48:13.969Z,67.08
2022-11-12T13:51:02.872Z,67.44
2022-11-12T13:53:48.238Z,67.48
2022-11-12T13:56:35.444Z,67.40
2022-11-12T13:59:23.092Z,67.87
2022-11-12T14:02:19.094Z,67.68
2022-11-12T14:05:13.164Z,67.49
2022-11-12T14:08:21.811Z,67.55
2022-11-12T14:11:35.663Z,67.04
2022-11-12T14:14:26.642Z,67.26
2022-11-12T14:17:49.147Z,67.24
2022-11-12T14:20:37.163Z,67.33
2022-11-12T14:23:25.093Z,67.74
2022-11-12T14:26:12.848Z,67.85
2022-11-12T14:28:58.362Z,67.85
2022-11-12T14:31:44.291Z,67.69
2022-11-12T14:34:33.153Z,67.61
2022-11-12T14:37:42.911Z,68.01
2022-11-12T14:40:29.879Z,67.31
2022-11-12T14:43:38.971Z,67.75
2022-11-12T14:46:38.748Z,67.99
2022-11-12T14:49:34.343Z,68.14
2022-11-12T14:52:27.904Z,68.00
2022-11-12T14:55:20.187Z,67.56
2022-11-12T14:58:05.915Z,67.74
2022-11-12T15:00:53.608Z,68.17
2022-11-12T15:03:48.555Z,67.83
2022-11-12T15:06:38.127Z,67.85
2022-11-12T15:09:36.468Z,68.01
2022-11-12T15:12:31.688Z,68.19
2022-11-12T15:15:26.642Z,68.50
2022-11-12T15:18:18.962Z,68.55
2022-11-12T15:21:18.414Z,68.34
2022-11-12T15:24:35.039Z,68.21
2022-11-12T15:27:39.129Z,68.32
2022-11-12T15:30:27.603Z,68.51
2022-11-12T15:33:13.799Z,68.32
2022-11-12T15:36:00.395Z,68.45
2022-11-12T15:38:53.268Z,68.52
2022-11-12T15:41:39.125Z,68.33
2022-11-12T15:44:24.570Z,68.21
2022-11-12T15:47:18.354Z,68.43
2022-11-12T15:50:16.584Z,68.39
2022-11-12T15:53:01.808Z,68.50
2022-11-12T15:55:47.479Z,68.66
2022-11-12T15:58:34.726Z,68.66
2022-11-12T16:01:20.193Z,68.56
2022-11-12T16:04:05.445Z,68.62
2022-11-12T16:06:50.852Z,68.61
2022-11-12T16:09:36.151Z,68.51
2022-11-12T16:12:21.471Z,68.81
2022-11-12T16:15:16.569Z,68.94
2022-11-12T16:18:02.176Z,68.80
2022-11-12T16:20:48.708Z,68.83
2022-11-12T16:23:34.314Z,68.55
2022-11-12T16:26:24.582Z,68.85
2022-11-12T16:29:13.093Z,68.93
2022-11-12T16:31:58.323Z,68.91
2022-11-12T16:34:43.782Z,68.88
2022-11-12T16:37:29.096Z,69.11
2022-11-12T16:40:23.472Z,69.15
2022-11-12T16:43:09.089Z,69.34
2022-11-12T16:45:54.603Z,69.33
2022-11-12T16:48:39.998Z,69.00
2022-11-12T16:51:25.376Z,69.00
2022-11-12T16:54:10.770Z,68.88
2022-11-12T16:56:56.856Z,69.29
2022-11-12T16:59:42.237Z,68.93
2022-11-12T17:02:27.553Z,69.28
2022-11-12T17:05:20.198Z,69.11
2022-11-12T17:08:05.564Z,69.07
2022-11-12T17:10:51.022Z,69.29
2022-11-12T17:13:38.989Z,69.14
2022-11-12T17:16:24.371Z,68.85
2022-11-12T17:19:09.897Z,68.98
2022-11-12T17:21:55.522Z,69.25
2022-11-12T17:24:40.901Z,69.41
2022-11-12T17:27:26.372Z,69.14
2022-11-12T17:30:12.186Z,69.24
2022-11-12T17:32:59.625Z,69.23
2022-11-12T17:35:44.876Z,69.23
2022-11-12T17:38:30.442Z,69.12
2022-11-12T17:41:15.828Z,69.41
2022-11-12T17:44:01.943Z,69.27
2022-11-12T17:46:47.706Z,69.33
2022-11-12T17:49:33.097Z,69.14
2022-11-12T17:52:18.692Z,69.25
2022-11-12T17:55:04.180Z,69.49
2022-11-12T17:57:49.427Z,69.56
2022-11-12T18:00:36.692Z,69.38
2022-11-12T18:03:21.924Z,69.24
2022-11-12T18:06:12.519Z,69.33
2022-11-12T18:09:00.082Z,69.28
2022-11-12T18:11:48.319Z,69.28
2022-11-12T18:14:33.693Z,69.32
2022-11-12T18:17:19.457Z,69.41
2022-11-12T18:20:05.706Z,69.35
2022-11-12T18:22:50.814Z,69.35
2022-11-12T18:25:38.502Z,69.38
2022-11-12T18:28:24.075Z,68.85
2022-11-12T18:31:12.244Z,69.16
2022-11-12T18:33:58.073Z,69.23
2022-11-12T18:36:44.398Z,69.35
2022-11-12T18:39:31.004Z,68.93
2022-11-12T18:42:16.451Z,69.05
2022-11-12T18:45:01.847Z,69.29
2022-11-12T18:47:47.217Z,69.27
2022-11-12T18:50:32.667Z,69.43
2022-11-12T18:53:18.159Z,69.04
2022-11-12T18:56:07.273Z,69.35
2022-11-12T18:58:52.844Z,69.45
2022-11-12T19:01:38.374Z,69.28
2022-11-12T19:04:23.878Z,69.30
2022-11-12T19:07:09.766Z,68.96
2022-11-12T19:09:55.430Z,69.11
2022-11-12T19:12:40.773Z,69.17
2022-11-12T19:15:27.123Z,69.28
2022-11-12T19:18:14.230Z,69.28
2022-11-12T19:21:20.271Z,69.63
2022-11-12T19:24:05.839Z,69.52
2022-11-12T19:26:51.735Z,69.57
2022-11-12T19:29:36.729Z,69.96
2022-11-12T19:32:22.920Z,70.00
2022-11-12T19:35:08.904Z,69.60
2022-11-12T19:37:54.185Z,69.69
2022-11-12T19:40:39.797Z,69.87
2022-11-12T19:43:25.111Z,69.63
2022-11-12T19:46:11.143Z,69.44
2022-11-12T19:48:57.012Z,69.75
2022-11-12T19:51:42.788Z,69.72
2022-11-12T19:54:28.415Z,69.81
2022-11-12T19:57:13.792Z,69.71
2022-11-12T19:59:59.237Z,69.88
2022-11-12T20:02:44.643Z,70.26
2022-11-12T20:05:30.478Z,70.31
2022-11-12T20:08:15.710Z,70.29
2022-11-12T20:11:01.543Z,70.31
2022-11-12T20:13:47.222Z,70.25
2022-11-12T20:16:33.179Z,69.99
2022-11-12T20:19:19.724Z,69.94
2022-11-12T20:22:05.249Z,70.04
2022-11-12T20:24:50.621Z,70.14
2022-11-12T20:27:35.993Z,70.04
2022-11-12T20:30:21.370Z,70.13
2022-11-12T20:33:06.863Z,70.44
2022-11-12T20:35:52.150Z,70.40
2022-11-12T20:38:38.841Z,70.44
2022-11-12T20:41:26.044Z,70.74
2022-11-12T20:44:11.600Z,70.48
2022-11-12T20:46:58.291Z,70.38
2022-11-12T20:49:43.648Z,70.64
2022-11-12T20:52:29.242Z,70.44
2022-11-12T20:55:14.698Z,70.55
2022-11-12T20:58:00.273Z,70.72
2022-11-12T21:00:45.886Z,70.32
2022-11-12T21:03:31.557Z,70.38
2022-11-12T21:06:19.666Z,70.53
2022-11-12T21:09:04.843Z,71.04
2022-11-12T21:11:50.099Z,71.21
2022-11-12T21:14:35.280Z,71.14
2022-11-12T21:17:20.842Z,71.75
2022-11-12T21:20:06.686Z,72.45
2022-11-12T21:22:51.805Z,72.38
2022-11-12T21:25:40.820Z,72.55
2022-11-12T21:28:26.362Z,72.75
2022-11-12T21:31:14.557Z,73.10
2022-11-12T21:34:03.740Z,73.65
2022-11-12T21:36:48.914Z,73.48
2022-11-12T21:39:34.161Z,73.84
2022-11-12T21:42:19.487Z,73.58
2022-11-12T21:45:06.513Z,73.63
2022-11-12T21:47:53.409Z,73.28
2022-11-12T21:50:39.297Z,72.85
2022-11-12T21:53:24.976Z,72.90
2022-11-12T21:56:12.934Z,72.69
2022-11-12T21:59:01.668Z,72.80
2022-11-12T22:01:46.982Z,72.30
2022-11-12T22:04:32.570Z,72.36
2022-11-12T22:07:18.465Z,72.11
2022-11-12T22:10:03.895Z,71.87
2022-11-12T22:13:11.962Z,72.12
2022-11-12T22:15:54.707Z,72.38
2022-11-12T22:18:41.774Z,72.70
2022-11-12T22:21:30.672Z,72.93
2022-11-12T22:24:18.020Z,73.45
2022-11-12T22:27:05.671Z,73.34
2022-11-12T22:29:52.018Z,73.54
2022-11-12T22:32:37.294Z,73.19
2022-11-12T22:35:22.554Z,73.49
2022-11-12T22:38:07.775Z,74.05
2022-11-12T22:40:53.309Z,73.90
2022-11-12T22:43:38.781Z,73.90
2022-11-12T22:46:26.451Z,73.67
2022-11-12T22:49:12.229Z,73.85
2022-11-12T22:51:58.489Z,73.91
2022-11-12T22:54:44.023Z,74.55
2022-11-12T22:57:29.337Z,74.88
2022-11-12T23:00:15.314Z,74.72
2022-11-12T23:03:01.232Z,74.65
2022-11-12T23:05:46.747Z,74.69
2022-11-12T23:08:32.860Z,75.34
2022-11-12T23:11:19.918Z,75.17
2022-11-12T23:14:05.604Z,75.20
2022-11-12T23:16:51.809Z,76.00
2022-11-12T23:19:37.582Z,75.98
2022-11-12T23:22:22.994Z,76.01
2022-11-12T23:25:09.260Z,75.97
2022-11-12T23:27:54.646Z,75.79
2022-11-12T23:30:39.908Z,75.97
2022-11-12T23:33:25.431Z,76.09
2022-11-12T23:36:11.420Z,76.17
2022-11-12T23:38:58.432Z,76.69
2022-11-12T23:41:44.143Z,76.99
2022-11-12T23:44:29.480Z,77.73
2022-11-12T23:47:17.748Z,77.88
2022-11-12T23:50:03.362Z,77.54
2022-11-12T23:52:48.886Z,78.21
2022-11-12T23:55:38.455Z,78.44
2022-11-12T23:58:24.592Z,77.72
